createdAt,value
2023-05-10T00:00:18.568Z,2.95
2023-05-10T00:03:07.051Z,3.08
2023-05-10T00:05:34.964Z,3.65
2023-05-10T00:08:04.346Z,3.58
2023-05-10T00:10:32.066Z,3.72
2023-05-10T00:13:00.212Z,3.75
2023-05-10T00:15:28.117Z,4.10
2023-05-10T00:17:56.270Z,3.60
2023-05-10T00:20:24.155Z,3.97
2023-05-10T00:22:52.418Z,4.22
2023-05-10T00:25:20.213Z,4.55
2023-05-10T00:27:49.736Z,3.75
2023-05-10T00:30:17.722Z,4.20
2023-05-10T00:32:46.026Z,3.30
2023-05-10T00:35:13.988Z,3.25
2023-05-10T00:37:42.119Z,3.30
2023-05-10T00:40:10.414Z,2.90
2023-05-10T00:42:39.646Z,3.17
2023-05-10T00:45:09.171Z,3.25
2023-05-10T00:47:39.005Z,2.15
2023-05-10T00:50:07.732Z,2.63
2023-05-10T00:52:35.998Z,2.42
2023-05-10T00:55:05.189Z,2.00
2023-05-10T00:57:33.829Z,1.88
2023-05-10T01:00:03.362Z,1.88
2023-05-10T01:02:31.577Z,2.45
2023-05-10T01:05:00.351Z,2.05
2023-05-10T01:07:29.271Z,1.80
2023-05-10T01:09:57.938Z,1.70
2023-05-10T01:12:27.464Z,1.92
2023-05-10T01:14:56.318Z,1.83
2023-05-10T01:17:26.636Z,1.73
2023-05-10T01:19:54.537Z,2.00
2023-05-10T01:22:48.811Z,1.95
2023-05-10T01:25:55.586Z,2.22
2023-05-10T01:28:49.186Z,1.70
2023-05-10T01:31:43.055Z,1.63
2023-05-10T01:37:10.602Z,2.08
2023-05-10T01:40:02.282Z,1.50
2023-05-10T01:42:46.946Z,1.40
2023-05-10T01:45:26.868Z,1.80
2023-05-10T01:48:06.893Z,1.60
2023-05-10T01:50:37.949Z,1.50
2023-05-10T01:53:10.308Z,1.60
2023-05-10T01:55:50.516Z,1.73
2023-05-10T01:58:29.676Z,1.63
2023-05-10T02:01:01.940Z,1.85
2023-05-10T02:03:32.316Z,1.60
2023-05-10T02:06:01.002Z,1.70
2023-05-10T02:08:30.224Z,2.20
2023-05-10T02:11:00.808Z,1.80
2023-05-10T02:13:33.078Z,1.70
2023-05-10T02:16:03.125Z,2.10
2023-05-10T02:18:32.848Z,1.70
2023-05-10T02:21:03.955Z,1.50
2023-05-10T02:23:32.570Z,1.80
2023-05-10T02:26:03.051Z,1.48
2023-05-10T02:28:32.492Z,1.90
2023-05-10T02:31:01.359Z,1.73
2023-05-10T02:33:30.790Z,1.60
2023-05-10T02:36:00.260Z,1.90
2023-05-10T02:38:28.451Z,2.00
2023-05-10T02:41:00.809Z,1.92
2023-05-10T02:43:31.514Z,2.20
2023-05-10T02:45:59.683Z,1.88
2023-05-10T02:48:27.530Z,1.83
2023-05-10T02:51:01.673Z,1.60
2023-05-10T02:53:34.635Z,2.00
2023-05-10T02:56:09.802Z,2.50
2023-05-10T02:58:37.603Z,2.17
2023-05-10T03:01:08.710Z,1.88
2023-05-10T03:03:36.481Z,2.40
2023-05-10T03:06:06.151Z,1.95
2023-05-10T03:08:34.142Z,1.80
2023-05-10T03:11:41.345Z,2.75
2023-05-10T03:14:32.898Z,2.20
2023-05-10T03:17:04.667Z,2.47
2023-05-10T03:19:53.174Z,2.20
2023-05-10T03:22:42.153Z,1.98
2023-05-10T03:25:13.362Z,1.95
2023-05-10T03:27:44.869Z,2.20
2023-05-10T03:30:14.207Z,2.20
2023-05-10T03:32:44.394Z,1.83
2023-05-10T03:35:15.368Z,2.22
2023-05-10T03:37:44.048Z,2.33
2023-05-10T03:40:12.064Z,2.13
2023-05-10T03:42:43.432Z,1.80
2023-05-10T03:45:11.446Z,2.40
2023-05-10T03:47:40.083Z,2.00
2023-05-10T03:50:08.549Z,2.00
2023-05-10T03:52:40.442Z,2.40
2023-05-10T03:55:08.773Z,1.95
2023-05-10T03:57:38.195Z,2.55
2023-05-10T04:00:07.952Z,2.30
2023-05-10T04:02:43.181Z,1.70
2023-05-10T04:05:17.504Z,2.38
2023-05-10T04:07:48.232Z,2.20
2023-05-10T04:10:17.782Z,2.35
2023-05-10T04:12:47.162Z,2.35
2023-05-10T04:15:15.081Z,2.03
2023-05-10T04:17:44.015Z,2.15
2023-05-10T04:20:12.442Z,2.10
2023-05-10T04:22:40.556Z,2.22
2023-05-10T04:25:08.883Z,2.15
2023-05-10T04:27:37.001Z,2.13
2023-05-10T04:30:05.557Z,2.50
2023-05-10T04:32:33.749Z,2.45
2023-05-10T04:35:04.210Z,2.00
2023-05-10T04:37:33.387Z,2.00
2023-05-10T04:40:01.303Z,2.05
2023-05-10T04:42:29.341Z,2.00
2023-05-10T04:44:57.101Z,2.15
2023-05-10T04:47:25.276Z,1.80
2023-05-10T04:49:53.568Z,2.13
2023-05-10T04:52:21.863Z,1.70
2023-05-10T04:54:49.672Z,1.85
2023-05-10T04:57:19.045Z,2.05
2023-05-10T04:59:48.952Z,3.08
2023-05-10T05:02:18.620Z,1.75
2023-05-10T05:04:46.380Z,2.22
2023-05-10T05:07:15.930Z,2.13
2023-05-10T05:09:43.804Z,2.15
2023-05-10T05:12:15.308Z,2.40
2023-05-10T05:14:43.300Z,2.38
2023-05-10T05:17:11.454Z,2.13
2023-05-10T05:19:39.343Z,2.17
2023-05-10T05:22:09.292Z,2.00
2023-05-10T05:24:40.551Z,1.83
2023-05-10T05:27:08.852Z,1.95
2023-05-10T05:29:36.670Z,2.08
2023-05-10T05:32:05.079Z,2.28
2023-05-10T05:34:32.903Z,2.33
2023-05-10T05:37:01.473Z,1.90
2023-05-10T05:39:29.280Z,2.20
2023-05-10T05:41:59.750Z,2.80
2023-05-10T05:44:29.993Z,1.77
2023-05-10T05:46:58.120Z,2.10
2023-05-10T05:49:26.642Z,2.10
2023-05-10T05:51:54.844Z,2.15
2023-05-10T05:54:22.686Z,2.25
2023-05-10T05:56:50.792Z,2.00
2023-05-10T05:59:18.602Z,2.58
2023-05-10T06:01:46.739Z,2.47
2023-05-10T06:04:14.654Z,2.17
2023-05-10T06:06:44.381Z,2.22
2023-05-10T06:09:12.641Z,1.90
2023-05-10T06:11:40.749Z,1.98
2023-05-10T06:14:09.038Z,2.10
2023-05-10T06:16:37.249Z,2.20
2023-05-10T06:19:05.059Z,2.30
2023-05-10T06:21:33.151Z,2.22
2023-05-10T06:24:01.519Z,2.08
2023-05-10T06:26:29.853Z,2.20
2023-05-10T06:28:57.636Z,1.60
2023-05-10T06:31:25.816Z,1.60
2023-05-10T06:33:56.568Z,1.80
2023-05-10T06:36:27.595Z,1.80
2023-05-10T06:38:56.088Z,1.92
2023-05-10T06:41:25.047Z,2.05
2023-05-10T06:43:52.981Z,1.80
2023-05-10T06:46:21.301Z,1.83
2023-05-10T06:48:49.869Z,2.30
2023-05-10T06:51:19.201Z,1.70
2023-05-10T06:53:46.922Z,1.38
2023-05-10T06:56:16.108Z,2.00
2023-05-10T06:58:43.919Z,1.67
2023-05-10T07:01:12.141Z,1.83
2023-05-10T07:03:40.214Z,1.90
2023-05-10T07:06:15.616Z,1.80
2023-05-10T07:08:49.814Z,1.83
2023-05-10T07:11:17.964Z,1.95
2023-05-10T07:13:47.619Z,2.05
2023-05-10T07:16:15.948Z,2.30
2023-05-10T07:18:43.903Z,2.15
2023-05-10T07:21:12.108Z,1.90
2023-05-10T07:23:39.976Z,1.83
2023-05-10T07:26:10.662Z,1.77
2023-05-10T07:28:39.321Z,2.20
2023-05-10T07:31:08.867Z,2.00
2023-05-10T07:33:36.942Z,1.90
2023-05-10T07:36:05.233Z,1.80
2023-05-10T07:38:32.979Z,2.05
2023-05-10T07:41:01.069Z,2.08
2023-05-10T07:43:29.128Z,2.92
2023-05-10T07:45:58.928Z,1.88
2023-05-10T07:48:27.460Z,1.90
2023-05-10T07:50:55.598Z,2.92
2023-05-10T07:53:23.766Z,1.98
2023-05-10T07:55:59.377Z,2.40
2023-05-10T07:58:27.426Z,2.13
2023-05-10T08:00:57.676Z,1.85
2023-05-10T08:03:25.547Z,2.53
2023-05-10T08:05:53.809Z,1.73
2023-05-10T08:08:23.924Z,1.85
2023-05-10T08:10:52.232Z,2.22
2023-05-10T08:13:20.100Z,1.92
2023-05-10T08:15:48.526Z,2.30
2023-05-10T08:18:16.296Z,2.00
2023-05-10T08:20:44.404Z,2.35
2023-05-10T08:23:14.545Z,1.98
2023-05-10T08:25:42.649Z,2.00
2023-05-10T08:28:12.044Z,1.92
2023-05-10T08:30:40.276Z,2.10
2023-05-10T08:33:08.038Z,1.83
2023-05-10T08:35:36.094Z,2.10
2023-05-10T08:38:03.891Z,2.53
2023-05-10T08:40:32.134Z,1.70
2023-05-10T08:43:09.925Z,2.15
2023-05-10T08:45:43.257Z,2.20
2023-05-10T08:48:12.420Z,2.50
2023-05-10T08:50:42.051Z,1.70
2023-05-10T08:53:16.421Z,2.20
2023-05-10T08:55:44.659Z,2.13
2023-05-10T08:58:13.342Z,2.10
2023-05-10T09:00:41.546Z,2.47
2023-05-10T09:03:10.410Z,2.28
2023-05-10T09:05:38.801Z,2.15
2023-05-10T09:08:09.278Z,2.20
2023-05-10T09:10:41.166Z,2.05
2023-05-10T09:13:11.183Z,2.42
2023-05-10T09:15:39.884Z,1.92
2023-05-10T09:18:07.762Z,2.08
2023-05-10T09:20:35.991Z,1.90
2023-05-10T09:23:03.868Z,2.25
2023-05-10T09:25:34.542Z,1.80
2023-05-10T09:28:02.370Z,2.10
2023-05-10T09:30:32.293Z,1.80
2023-05-10T09:33:01.290Z,1.75
2023-05-10T09:35:31.408Z,1.85
2023-05-10T09:38:05.451Z,1.88
2023-05-10T09:43:03.544Z,1.98
2023-05-10T09:45:32.963Z,2.00
2023-05-10T09:48:03.684Z,2.10
2023-05-10T09:50:31.928Z,2.05
2023-05-10T09:53:02.002Z,1.58
2023-05-10T09:55:41.830Z,1.95
2023-05-10T09:58:11.779Z,2.10
2023-05-10T10:00:42.118Z,1.92
2023-05-10T10:03:22.433Z,1.80
2023-05-10T10:05:50.351Z,1.77
2023-05-10T10:08:19.452Z,1.65
2023-05-10T10:10:48.156Z,1.85
2023-05-10T10:13:18.415Z,1.92
2023-05-10T10:15:47.285Z,1.92
2023-05-10T10:18:18.320Z,2.35
2023-05-10T10:20:47.066Z,1.90
2023-05-10T10:23:17.359Z,1.73
2023-05-10T10:25:49.126Z,1.60
2023-05-10T10:28:36.786Z,1.55
2023-05-10T10:31:20.698Z,1.92
2023-05-10T10:34:29.982Z,2.03
2023-05-10T10:36:59.142Z,1.50
2023-05-10T10:39:28.031Z,1.70
2023-05-10T10:41:58.027Z,2.38
2023-05-10T10:44:34.503Z,2.00
2023-05-10T10:47:19.730Z,2.13
2023-05-10T10:49:53.641Z,1.73
2023-05-10T10:55:10.329Z,1.85
2023-05-10T10:57:48.199Z,2.33
2023-05-10T11:00:42.023Z,3.00
2023-05-10T11:03:16.686Z,2.10
2023-05-10T11:05:50.238Z,2.08
2023-05-10T11:08:28.402Z,2.30
2023-05-10T11:11:08.009Z,1.90
2023-05-10T11:13:49.965Z,2.20
2023-05-10T11:16:25.304Z,1.65
2023-05-10T11:19:04.897Z,2.20
2023-05-10T11:21:36.032Z,1.92
2023-05-10T11:24:13.786Z,2.42
2023-05-10T11:26:42.041Z,2.25
2023-05-10T11:29:10.027Z,1.80
2023-05-10T11:31:47.809Z,2.28
2023-05-10T11:34:31.410Z,2.10
2023-05-10T11:39:29.202Z,2.17
2023-05-10T11:42:00.747Z,2.28
2023-05-10T11:44:32.763Z,2.38
2023-05-10T11:47:02.715Z,3.15
2023-05-10T11:49:31.517Z,2.72
2023-05-10T11:52:08.586Z,2.42
2023-05-10T11:54:36.570Z,2.70
2023-05-10T11:57:05.324Z,2.35
2023-05-10T11:59:33.101Z,2.42
2023-05-10T12:02:02.231Z,2.40
2023-05-10T12:04:30.795Z,2.03
2023-05-10T12:06:59.164Z,2.40
2023-05-10T12:09:42.600Z,3.00
2023-05-10T12:12:17.556Z,2.05
2023-05-10T12:17:14.445Z,2.25
2023-05-10T12:19:42.617Z,2.40
2023-05-10T12:22:11.671Z,2.55
2023-05-10T12:24:39.974Z,2.50
2023-05-10T12:29:56.866Z,2.70
2023-05-10T12:32:39.446Z,2.38
2023-05-10T12:35:07.851Z,2.33
2023-05-10T12:37:40.110Z,2.83
2023-05-10T12:40:10.672Z,2.45
2023-05-10T12:42:40.965Z,2.60
2023-05-10T12:45:10.093Z,2.67
2023-05-10T12:47:39.495Z,2.67
2023-05-10T12:50:09.544Z,2.40
2023-05-10T12:52:38.249Z,1.48
2023-05-10T12:55:06.250Z,2.45
2023-05-10T12:57:34.678Z,2.13
2023-05-10T13:00:02.600Z,2.72
2023-05-10T13:02:31.120Z,2.38
2023-05-10T13:04:59.147Z,2.30
2023-05-10T13:07:27.909Z,2.65
2023-05-10T13:09:55.967Z,2.33
2023-05-10T13:12:24.328Z,2.75
2023-05-10T13:14:52.187Z,2.50
2023-05-10T13:17:20.499Z,2.70
2023-05-10T13:19:48.616Z,2.60
2023-05-10T13:22:22.883Z,2.42
2023-05-10T13:24:56.928Z,2.38
2023-05-10T13:27:25.168Z,2.40
2023-05-10T13:29:53.118Z,2.30
2023-05-10T13:32:21.437Z,1.67
2023-05-10T13:34:49.285Z,2.22
2023-05-10T13:37:17.501Z,2.10
2023-05-10T13:39:45.489Z,2.63
2023-05-10T13:42:13.811Z,2.60
2023-05-10T13:44:41.811Z,1.95
2023-05-10T13:47:10.085Z,2.50
2023-05-10T13:49:37.975Z,2.38
2023-05-10T13:52:08.023Z,2.55
2023-05-10T13:54:36.849Z,1.90
2023-05-10T13:57:05.796Z,2.13
2023-05-10T13:59:34.030Z,2.33
2023-05-10T14:02:05.280Z,2.33
2023-05-10T14:04:33.227Z,2.03
2023-05-10T14:07:01.533Z,2.20
2023-05-10T14:09:29.432Z,2.25
2023-05-10T14:11:57.713Z,2.67
2023-05-10T14:14:26.084Z,2.30
2023-05-10T14:16:54.792Z,2.00
2023-05-10T14:19:22.631Z,3.45
2023-05-10T14:21:53.169Z,2.22
2023-05-10T14:24:21.076Z,2.00
2023-05-10T14:26:49.288Z,1.67
2023-05-10T14:29:17.300Z,1.60
2023-05-10T14:31:45.620Z,1.90
2023-05-10T14:34:13.540Z,2.00
2023-05-10T14:36:41.771Z,1.98
2023-05-10T14:39:11.272Z,1.88
2023-05-10T14:41:42.348Z,1.60
2023-05-10T14:44:11.193Z,2.10
2023-05-10T14:46:40.604Z,2.72
2023-05-10T14:49:08.861Z,1.67
2023-05-10T14:51:37.985Z,1.85
2023-05-10T14:54:06.057Z,2.30
2023-05-10T14:56:34.402Z,2.13
2023-05-10T14:59:02.254Z,2.22
2023-05-10T15:01:32.817Z,1.45
2023-05-10T15:04:01.237Z,2.20
2023-05-10T15:06:34.956Z,2.00
2023-05-10T15:09:04.617Z,1.83
2023-05-10T15:11:33.326Z,1.77
2023-05-10T15:14:01.320Z,1.58
2023-05-10T15:16:29.782Z,1.98
2023-05-10T15:18:57.845Z,1.80
2023-05-10T15:21:26.136Z,2.00
2023-05-10T15:23:54.144Z,1.80
2023-05-10T15:26:23.275Z,1.70
2023-05-10T15:28:51.589Z,1.98
2023-05-10T15:31:19.929Z,1.80
2023-05-10T15:33:47.896Z,2.08
2023-05-10T15:36:18.145Z,1.52
2023-05-10T15:38:46.035Z,1.70
2023-05-10T15:41:14.502Z,1.73
2023-05-10T15:43:42.778Z,1.70
2023-05-10T15:46:11.316Z,1.85
2023-05-10T15:48:40.563Z,2.05
2023-05-10T15:51:09.235Z,1.92
2023-05-10T15:53:37.252Z,1.80
2023-05-10T15:56:06.154Z,1.95
2023-05-10T15:58:34.144Z,1.85
2023-05-10T16:01:02.562Z,1.73
2023-05-10T16:03:31.600Z,1.95
2023-05-10T16:06:00.234Z,1.85
2023-05-10T16:08:31.044Z,2.00
2023-05-10T16:10:59.255Z,1.90
2023-05-10T16:13:27.312Z,1.35
2023-05-10T16:15:55.803Z,1.60
2023-05-10T16:18:23.742Z,2.70
2023-05-10T16:20:53.542Z,1.55
2023-05-10T16:23:21.424Z,5.80
2023-05-10T16:25:49.542Z,1.63
2023-05-10T16:28:17.363Z,1.60
2023-05-10T16:30:47.745Z,1.77
2023-05-10T16:33:17.160Z,2.05
2023-05-10T16:35:45.268Z,1.70
2023-05-10T16:38:13.210Z,1.60
2023-05-10T16:40:41.363Z,1.50
2023-05-10T16:43:09.295Z,1.63
2023-05-10T16:45:37.524Z,1.67
2023-05-10T16:48:06.149Z,2.00
2023-05-10T16:50:34.579Z,2.17
2023-05-10T16:53:02.421Z,1.73
2023-05-10T16:55:30.928Z,2.67
2023-05-10T16:58:01.055Z,1.70
2023-05-10T17:00:29.336Z,2.38
2023-05-10T17:02:57.350Z,2.30
2023-05-10T17:05:26.610Z,1.75
2023-05-10T17:07:54.821Z,2.05
2023-05-10T17:10:23.227Z,2.08
2023-05-10T17:12:51.633Z,1.75
2023-05-10T17:15:21.108Z,2.08
2023-05-10T17:17:49.185Z,2.25
2023-05-10T17:20:17.675Z,2.28
2023-05-10T17:22:45.478Z,2.17
2023-05-10T17:25:13.713Z,2.47
2023-05-10T17:27:41.625Z,1.77
2023-05-10T17:30:10.265Z,1.90
2023-05-10T17:32:39.760Z,2.83
2023-05-10T17:35:08.572Z,2.38
2023-05-10T17:37:36.494Z,2.40
2023-05-10T17:40:07.613Z,14.80
2023-05-10T17:42:35.674Z,3.67
2023-05-10T17:45:04.423Z,3.70
2023-05-10T17:47:32.369Z,5.75
2023-05-10T17:50:00.610Z,3.58
2023-05-10T17:52:31.384Z,2.55
2023-05-10T17:55:01.146Z,3.00
2023-05-10T17:57:29.010Z,2.33
2023-05-10T17:59:57.289Z,2.88
2023-05-10T18:02:25.185Z,3.13
2023-05-10T18:04:53.511Z,2.95
2023-05-10T18:07:24.059Z,3.17
2023-05-10T18:09:52.271Z,3.20
2023-05-10T18:12:20.073Z,4.38
2023-05-10T18:14:48.250Z,11.80
2023-05-10T18:17:16.185Z,5.50
2023-05-10T18:19:44.288Z,11.88
2023-05-10T18:22:12.086Z,5.55
2023-05-10T18:24:41.192Z,3.80
2023-05-10T18:27:09.743Z,8.27
2023-05-10T18:29:38.385Z,17.85
2023-05-10T18:32:07.029Z,3.70
2023-05-10T18:34:35.458Z,3.45
2023-05-10T18:37:07.803Z,3.65
2023-05-10T18:39:39.382Z,2.70
2023-05-10T18:42:07.911Z,3.40
2023-05-10T18:44:36.140Z,3.65
2023-05-10T18:47:04.091Z,3.47
2023-05-10T18:49:32.448Z,3.22
2023-05-10T18:52:00.246Z,4.18
2023-05-10T18:54:28.539Z,5.07
2023-05-10T18:56:57.541Z,4.63
2023-05-10T18:59:28.289Z,3.97
2023-05-10T19:01:57.473Z,4.63
2023-05-10T19:04:26.510Z,5.35
2023-05-10T19:06:56.105Z,5.72
2023-05-10T19:09:27.154Z,5.13
2023-05-10T19:11:55.421Z,5.72
2023-05-10T19:14:25.636Z,6.32
2023-05-10T19:16:56.183Z,5.55
2023-05-10T19:19:25.902Z,6.47
2023-05-10T19:21:55.656Z,6.50
2023-05-10T19:24:25.958Z,5.65
2023-05-10T19:26:56.689Z,5.95
2023-05-10T19:29:26.210Z,6.28
2023-05-10T19:31:55.236Z,5.68
2023-05-10T19:34:23.844Z,6.00
2023-05-10T19:36:52.842Z,6.72
2023-05-10T19:39:22.451Z,6.32
2023-05-10T19:41:51.809Z,6.85
2023-05-10T19:44:21.210Z,7.40
2023-05-10T19:46:50.239Z,6.05
2023-05-10T19:49:20.051Z,7.10
2023-05-10T19:51:50.089Z,6.32
2023-05-10T19:54:18.956Z,6.78
2023-05-10T19:56:46.872Z,6.65
2023-05-10T19:59:15.790Z,7.35
2023-05-10T20:01:43.810Z,6.70
2023-05-10T20:04:12.771Z,7.50
2023-05-10T20:06:40.857Z,6.65
2023-05-10T20:09:09.844Z,6.75
2023-05-10T20:11:38.847Z,6.22
2023-05-10T20:14:07.339Z,7.53
2023-05-10T20:16:36.369Z,5.80
2023-05-10T20:19:05.351Z,6.05
2023-05-10T20:21:34.752Z,6.45
2023-05-10T20:24:03.580Z,6.32
2023-05-10T20:26:31.521Z,6.30
2023-05-10T20:29:00.690Z,6.28
2023-05-10T20:31:29.376Z,5.95
2023-05-10T20:33:57.740Z,5.88
2023-05-10T20:36:27.690Z,5.57
2023-05-10T20:38:57.076Z,6.28
2023-05-10T20:41:25.986Z,5.45
2023-05-10T20:43:54.765Z,4.50
2023-05-10T20:46:23.569Z,4.75
2023-05-10T20:48:52.563Z,3.55
2023-05-10T20:51:21.416Z,3.95
2023-05-10T20:53:49.821Z,3.08
2023-05-10T20:56:20.920Z,3.30
2023-05-10T20:58:49.235Z,2.85
2023-05-10T21:01:19.306Z,2.40
2023-05-10T21:03:48.207Z,2.13
2023-05-10T21:06:16.323Z,2.25
2023-05-10T21:08:45.760Z,2.20
2023-05-10T21:11:14.016Z,2.17
2023-05-10T21:13:44.287Z,2.05
2023-05-10T21:16:12.222Z,2.47
2023-05-10T21:18:41.606Z,1.77
2023-05-10T21:21:09.914Z,1.40
2023-05-10T21:23:38.216Z,1.65
2023-05-10T21:26:06.573Z,1.10
2023-05-10T21:28:35.002Z,1.40
2023-05-10T21:31:03.023Z,1.30
2023-05-10T21:33:31.473Z,1.42
2023-05-10T21:35:59.546Z,1.30
2023-05-10T21:38:29.049Z,1.30
2023-05-10T21:40:57.199Z,1.10
2023-05-10T21:43:25.475Z,1.13
2023-05-10T21:45:53.389Z,0.80
2023-05-10T21:48:21.585Z,1.00
2023-05-10T21:50:49.571Z,1.13
2023-05-10T21:53:18.252Z,1.20
2023-05-10T21:55:46.262Z,1.30
2023-05-10T21:58:14.631Z,0.90
2023-05-10T22:00:42.640Z,1.10
2023-05-10T22:03:11.258Z,1.10
2023-05-10T22:05:39.546Z,1.30
2023-05-10T22:08:08.110Z,1.15
2023-05-10T22:10:36.108Z,1.20
2023-05-10T22:13:04.574Z,0.98
2023-05-10T22:15:34.155Z,0.75
2023-05-10T22:18:04.380Z,1.00
2023-05-10T22:20:33.286Z,1.27
2023-05-10T22:23:01.608Z,1.20
2023-05-10T22:25:29.441Z,1.40
2023-05-10T22:27:57.801Z,0.95
2023-05-10T22:30:26.006Z,0.90
2023-05-10T22:32:54.475Z,1.20
2023-05-10T22:35:22.493Z,1.38
2023-05-10T22:37:50.932Z,1.00
2023-05-10T22:40:19.206Z,1.52
2023-05-10T22:42:47.503Z,1.40
2023-05-10T22:45:15.495Z,1.38
2023-05-10T22:47:43.750Z,1.35
2023-05-10T22:50:12.606Z,1.20
2023-05-10T22:52:40.816Z,1.77
2023-05-10T22:55:09.443Z,1.42
2023-05-10T22:57:37.760Z,1.20
2023-05-10T23:00:06.769Z,1.50
2023-05-10T23:02:35.296Z,1.05
2023-05-10T23:05:05.496Z,1.08
2023-05-10T23:07:33.916Z,1.33
2023-05-10T23:10:02.302Z,1.55
2023-05-10T23:12:31.592Z,1.73
2023-05-10T23:14:59.793Z,1.50
2023-05-10T23:17:27.930Z,1.88
2023-05-10T23:19:55.945Z,2.08
2023-05-10T23:22:24.185Z,2.08
2023-05-10T23:24:52.035Z,3.00
2023-05-10T23:27:20.249Z,3.25
2023-05-10T23:29:52.434Z,3.50
2023-05-10T23:32:20.739Z,2.92
2023-05-10T23:34:48.630Z,2.85
2023-05-10T23:37:17.200Z,2.47
2023-05-10T23:39:45.282Z,2.33
2023-05-10T23:42:13.593Z,1.50
2023-05-10T23:44:41.641Z,2.22
2023-05-10T23:47:09.984Z,1.40
2023-05-10T23:49:38.239Z,1.33
2023-05-10T23:52:06.326Z,1.30
2023-05-10T23:54:34.372Z,1.27
2023-05-10T23:57:03.506Z,1.15
2023-05-10T23:59:31.352Z,0.90
